TimeMDT,TemperatureF,Dew PointF,Humidity,Sea Level PressureIn,VisibilityMPH,Wind Direction,Wind SpeedMPH,Gust SpeedMPH,PrecipitationIn,Events,Conditions,WindDirDegrees,DateUTC
12:53 AM,64.9,34.0,32,29.92,10.0,SSE,10.4,-,N/A,,Clear,160,2013-06-16 06:53:00
1:53 AM,63.0,34.0,34,29.91,10.0,SE,12.7,-,N/A,,Scattered Clouds,140,2013-06-16 07:53:00
2:53 AM,61.0,34.0,36,29.92,10.0,SE,11.5,-,N/A,,Partly Cloudy,140,2013-06-16 08:53:00
3:53 AM,62.1,33.1,34,29.94,10.0,Calm,Calm,-,N/A,,Scattered Clouds,0,2013-06-16 09:53:00
4:53 AM,61.0,33.1,35,29.94,10.0,South,11.5,-,N/A,,Partly Cloudy,170,2013-06-16 10:53:00
5:53 AM,59.0,35.1,41,29.97,10.0,SSE,6.9,-,N/A,,Scattered Clouds,150,2013-06-16 11:53:00
6:53 AM,60.1,35.1,39,29.97,10.0,SE,5.8,-,N/A,,Clear,140,2013-06-16 12:53:00
7:53 AM,64.0,37.9,38,29.98,10.0,ENE,6.9,-,N/A,,Mostly Cloudy,70,2013-06-16 13:53:00
8:53 AM,70.0,37.9,31,29.96,10.0,ESE,8.1,-,N/A,,Scattered Clouds,110,2013-06-16 14:53:00
9:53 AM,71.1,42.1,35,29.98,10.0,North,10.4,-,N/A,,Clear,350,2013-06-16 15:53:00
10:53 AM,77.0,39.0,25,29.97,10.0,North,5.8,-,N/A,,Clear,350,2013-06-16 16:53:00
11:53 AM,82.0,37.9,21,29.94,10.0,North,8.1,-,N/A,,Clear,10,2013-06-16 17:53:00
12:41 PM,82.4,37.4,20,30.18,10.0,NNE,5.8,-,N/A,Thunderstorm,Clear,20,2013-06-16 18:41:00
12:53 PM,82.0,37.9,21,29.92,10.0,Variable,4.6,19.6,N/A,,Clear,0,2013-06-16 18:53:00
1:02 PM,82.4,37.4,20,30.18,10.0,NNW,11.5,-,N/A,Thunderstorm,Clear,330,2013-06-16 19:02:00
1:21 PM,82.4,37.4,20,30.18,10.0,WNW,5.8,18.4,N/A,,Scattered Clouds,300,2013-06-16 19:21:00
1:53 PM,79.0,39.9,25,29.94,10.0,ESE,5.8,-,N/A,Thunderstorm,Clear,120,2013-06-16 19:53:00
2:35 PM,78.8,42.8,28,30.19,10.0,South,11.5,-,N/A,,Partly Cloudy,180,2013-06-16 20:35:00
2:53 PM,80.1,33.1,18,29.94,10.0,WSW,12.7,-,N/A,,Clear,240,2013-06-16 20:53:00
3:53 PM,80.1,41.0,25,29.92,10.0,SE,13.8,-,N/A,,Clear,130,2013-06-16 21:53:00
4:53 PM,82.0,36.0,19,29.87,10.0,SE,12.7,-,N/A,,Clear,140,2013-06-16 22:53:00
5:53 PM,82.9,35.1,18,29.86,10.0,ESE,6.9,-,N/A,,Scattered Clouds,110,2013-06-16 23:53:00
6:20 PM,82.4,37.4,20,30.09,10.0,ESE,6.9,-,N/A,Thunderstorm,Mostly Cloudy,110,2013-06-17 00:20:00
6:53 PM,84.0,35.1,17,29.84,10.0,ENE,5.8,-,N/A,Thunderstorm,Partly Cloudy,70,2013-06-17 00:53:00
7:03 PM,82.4,33.8,17,30.08,10.0,East,6.9,-,N/A,,Clear,80,2013-06-17 01:03:00
7:53 PM,80.1,35.1,20,29.84,10.0,NNE,3.5,-,N/A,Thunderstorm,Clear,30,2013-06-17 01:53:00
8:16 PM,77.0,37.4,24,30.09,10.0,East,5.8,-,N/A,,Clear,100,2013-06-17 02:16:00
8:53 PM,73.9,36.0,25,29.86,10.0,ESE,8.1,-,N/A,,Clear,110,2013-06-17 02:53:00
9:53 PM,73.9,34.0,23,29.88,10.0,SSE,15.0,-,N/A,,Partly Cloudy,160,2013-06-17 03:53:00
10:53 PM,70.0,36.0,29,29.87,10.0,SSE,10.4,-,N/A,,Clear,150,2013-06-17 04:53:00
11:53 PM,70.0,36.0,29,29.86,10.0,SSE,11.5,-,N/A,,Clear,150,2013-06-17 05:53:00